sensor_id;sensor_type;location;lat;lon;timestamp;pressure;altitude;pressure_sealevel;temperature;humidity
62655;BME280;48717;55.556;37.816;2023-03-14T00:01:32;99212.94;;;-5.00;72.89
62655;BME280;48717;55.556;37.816;2023-03-14T00:03:59;99219.41;;;-4.90;71.64
62655;BME280;48717;55.556;37.816;2023-03-14T00:06:27;99155.03;;;-5.27;71.59
62655;BME280;48717;55.556;37.816;2023-03-14T00:08:54;99199.34;;;-4.98;72.82
62655;BME280;48717;55.556;37.816;2023-03-14T00:11:21;99165.13;;;-5.13;71.70
62655;BME280;48717;55.556;37.816;2023-03-14T00:13:52;99181.19;;;-5.01;72.02
62655;BME280;48717;55.556;37.816;2023-03-14T00:16:20;99194.03;;;-4.84;71.67
62655;BME280;48717;55.556;37.816;2023-03-14T00:18:47;99181.66;;;-4.91;71.87
62655;BME280;48717;55.556;37.816;2023-03-14T00:21:14;99184.78;;;-4.80;72.29
62655;BME280;48717;55.556;37.816;2023-03-14T00:23:42;99145.00;;;-4.87;71.97
62655;BME280;48717;55.556;37.816;2023-03-14T00:26:11;99151.69;;;-4.73;72.20
62655;BME280;48717;55.556;37.816;2023-03-14T00:28:40;99148.19;;;-4.75;71.60
62655;BME280;48717;55.556;37.816;2023-03-14T00:31:10;99154.03;;;-4.61;71.97
62655;BME280;48717;55.556;37.816;2023-03-14T00:33:40;99150.84;;;-4.55;71.25
62655;BME280;48717;55.556;37.816;2023-03-14T00:36:10;99131.06;;;-4.56;70.90
62655;BME280;48717;55.556;37.816;2023-03-14T00:38:39;99142.19;;;-4.57;70.80
62655;BME280;48717;55.556;37.816;2023-03-14T00:41:08;99135.88;;;-4.46;71.01
62655;BME280;48717;55.556;37.816;2023-03-14T00:43:36;99107.91;;;-4.56;70.23
62655;BME280;48717;55.556;37.816;2023-03-14T00:46:04;99124.75;;;-4.44;71.67
62655;BME280;48717;55.556;37.816;2023-03-14T00:48:32;99120.88;;;-4.36;70.32
62655;BME280;48717;55.556;37.816;2023-03-14T00:51:01;99129.53;;;-4.34;71.23
62655;BME280;48717;55.556;37.816;2023-03-14T00:53:28;99101.75;;;-4.41;70.42
62655;BME280;48717;55.556;37.816;2023-03-14T00:55:55;99125.53;;;-4.09;71.53
62655;BME280;48717;55.556;37.816;2023-03-14T00:58:22;99096.66;;;-4.22;72.10
62655;BME280;48717;55.556;37.816;2023-03-14T01:00:49;99109.53;;;-4.22;72.42
62655;BME280;48717;55.556;37.816;2023-03-14T01:03:16;99132.88;;;-3.99;71.70
62655;BME280;48717;55.556;37.816;2023-03-14T01:05:43;99138.03;;;-3.99;73.61
62655;BME280;48717;55.556;37.816;2023-03-14T01:08:10;99120.41;;;-3.89;73.89
62655;BME280;48717;55.556;37.816;2023-03-14T01:10:39;99094.16;;;-4.00;74.27
62655;BME280;48717;55.556;37.816;2023-03-14T01:13:08;99091.00;;;-3.95;74.80
62655;BME280;48717;55.556;37.816;2023-03-14T01:15:36;99110.53;;;-3.80;74.56
62655;BME280;48717;55.556;37.816;2023-03-14T01:18:04;99107.50;;;-3.71;76.49
62655;BME280;48717;55.556;37.816;2023-03-14T01:20:31;99087.63;;;-3.74;76.32
62655;BME280;48717;55.556;37.816;2023-03-14T01:22:58;99088.97;;;-3.82;77.09
62655;BME280;48717;55.556;37.816;2023-03-14T01:25:25;99082.59;;;-3.71;78.06
62655;BME280;48717;55.556;37.816;2023-03-14T01:27:53;99110.34;;;-3.65;78.60
62655;BME280;48717;55.556;37.816;2023-03-14T01:30:21;99110.16;;;-3.70;79.86
62655;BME280;48717;55.556;37.816;2023-03-14T01:32:48;99107.31;;;-3.56;80.73
62655;BME280;48717;55.556;37.816;2023-03-14T01:35:15;99097.78;;;-3.57;81.77
62655;BME280;48717;55.556;37.816;2023-03-14T01:37:42;99089.25;;;-3.56;82.77
62655;BME280;48717;55.556;37.816;2023-03-14T01:40:14;99061.03;;;-3.53;83.86
62655;BME280;48717;55.556;37.816;2023-03-14T01:42:57;99039.78;;;-3.47;84.77
62655;BME280;48717;55.556;37.816;2023-03-14T01:48:37;99046.28;;;-3.36;86.04
62655;BME280;48717;55.556;37.816;2023-03-14T01:51:12;99054.09;;;-3.34;87.00
62655;BME280;48717;55.556;37.816;2023-03-14T01:53:42;99054.03;;;-3.36;87.69
62655;BME280;48717;55.556;37.816;2023-03-14T01:56:11;99046.38;;;-3.34;88.54
62655;BME280;48717;55.556;37.816;2023-03-14T01:58:41;99030.91;;;-3.34;88.57
62655;BME280;48717;55.556;37.816;2023-03-14T02:01:11;99011.28;;;-3.31;89.25
62655;BME280;48717;55.556;37.816;2023-03-14T02:03:50;98984.59;;;-3.31;89.89
62655;BME280;48717;55.556;37.816;2023-03-14T02:06:24;99011.16;;;-3.12;90.12
62655;BME280;48717;55.556;37.816;2023-03-14T02:08:55;99017.81;;;-3.18;90.54
62655;BME280;48717;55.556;37.816;2023-03-14T02:11:28;98996.16;;;-3.00;90.38
62655;BME280;48717;55.556;37.816;2023-03-14T02:14:04;98993.34;;;-3.06;90.00
62655;BME280;48717;55.556;37.816;2023-03-14T02:16:50;98998.19;;;-3.14;89.58
62655;BME280;48717;55.556;37.816;2023-03-14T02:22:42;98962.84;;;-3.17;90.82
62655;BME280;48717;55.556;37.816;2023-03-14T02:27:53;98974.75;;;-2.97;91.61
62655;BME280;48717;55.556;37.816;2023-03-14T02:30:26;98959.25;;;-2.99;91.23
62655;BME280;48717;55.556;37.816;2023-03-14T02:33:00;98966.16;;;-2.98;91.20
62655;BME280;48717;55.556;37.816;2023-03-14T02:35:44;98974.88;;;-2.94;91.96
62655;BME280;48717;55.556;37.816;2023-03-14T02:38:24;98970.63;;;-2.94;92.10
62655;BME280;48717;55.556;37.816;2023-03-14T02:40:54;98960.25;;;-2.95;91.81
62655;BME280;48717;55.556;37.816;2023-03-14T02:43:21;98941.13;;;-3.00;91.91
62655;BME280;48717;55.556;37.816;2023-03-14T02:45:56;98930.88;;;-2.99;92.25
62655;BME280;48717;55.556;37.816;2023-03-14T02:48:42;98889.81;;;-3.16;92.87
62655;BME280;48717;55.556;37.816;2023-03-14T02:51:11;98909.56;;;-2.93;93.53
62655;BME280;48717;55.556;37.816;2023-03-14T02:53:39;98901.66;;;-2.98;93.10
62655;BME280;48717;55.556;37.816;2023-03-14T02:56:10;98875.53;;;-3.07;93.99
62655;BME280;48717;55.556;37.816;2023-03-14T02:58:38;98909.47;;;-2.96;94.96
62655;BME280;48717;55.556;37.816;2023-03-14T03:01:17;98895.81;;;-2.94;96.15
62655;BME280;48717;55.556;37.816;2023-03-14T03:03:44;98887.53;;;-2.85;96.71
62655;BME280;48717;55.556;37.816;2023-03-14T03:06:11;98904.13;;;-2.78;96.57
62655;BME280;48717;55.556;37.816;2023-03-14T03:08:38;98875.75;;;-3.01;95.89
62655;BME280;48717;55.556;37.816;2023-03-14T03:11:05;98898.88;;;-2.80;95.53
62655;BME280;48717;55.556;37.816;2023-03-14T03:13:34;98881.84;;;-2.76;96.00
62655;BME280;48717;55.556;37.816;2023-03-14T03:16:05;98893.22;;;-2.71;95.61
62655;BME280;48717;55.556;37.816;2023-03-14T03:18:33;98901.16;;;-2.65;96.88
62655;BME280;48717;55.556;37.816;2023-03-14T03:21:04;98886.38;;;-2.69;96.28
62655;BME280;48717;55.556;37.816;2023-03-14T03:23:32;98899.66;;;-2.59;96.27
62655;BME280;48717;55.556;37.816;2023-03-14T03:25:59;98841.41;;;-2.76;95.68
62655;BME280;48717;55.556;37.816;2023-03-14T03:28:26;98841.72;;;-2.68;97.36
62655;BME280;48717;55.556;37.816;2023-03-14T03:30:54;98879.44;;;-2.47;96.68
62655;BME280;48717;55.556;37.816;2023-03-14T03:33:22;98873.56;;;-2.43;96.82
62655;BME280;48717;55.556;37.816;2023-03-14T03:35:50;98853.84;;;-2.41;97.25
62655;BME280;48717;55.556;37.816;2023-03-14T03:38:26;98836.25;;;-2.51;97.25
62655;BME280;48717;55.556;37.816;2023-03-14T03:40:54;98809.66;;;-2.50;100.00
62655;BME280;48717;55.556;37.816;2023-03-14T03:43:24;98838.69;;;-2.31;100.00
62655;BME280;48717;55.556;37.816;2023-03-14T03:45:51;98843.28;;;-2.23;97.76
62655;BME280;48717;55.556;37.816;2023-03-14T03:48:19;98797.31;;;-2.33;97.44
62655;BME280;48717;55.556;37.816;2023-03-14T03:50:49;98808.44;;;-2.10;96.51
62655;BME280;48717;55.556;37.816;2023-03-14T03:53:19;98818.66;;;-2.13;97.03
62655;BME280;48717;55.556;37.816;2023-03-14T03:56:00;98801.50;;;-2.11;97.60
62655;BME280;48717;55.556;37.816;2023-03-14T03:58:28;98826.81;;;-2.00;96.76
62655;BME280;48717;55.556;37.816;2023-03-14T04:00:55;98819.06;;;-2.00;97.24
62655;BME280;48717;55.556;37.816;2023-03-14T04:03:23;98798.97;;;-1.81;97.08
62655;BME280;48717;55.556;37.816;2023-03-14T04:06:07;98814.50;;;-1.81;96.46
62655;BME280;48717;55.556;37.816;2023-03-14T04:08:37;98798.97;;;-1.81;97.24
62655;BME280;48717;55.556;37.816;2023-03-14T04:11:05;98786.69;;;-1.89;96.80
62655;BME280;48717;55.556;37.816;2023-03-14T04:13:53;98836.59;;;-1.64;96.67
62655;BME280;48717;55.556;37.816;2023-03-14T04:16:22;98822.78;;;-1.64;97.45
62655;BME280;48717;55.556;37.816;2023-03-14T04:18:53;98806.69;;;-1.55;96.74
62655;BME280;48717;55.556;37.816;2023-03-14T04:21:21;98811.47;;;-1.68;97.17
62655;BME280;48717;55.556;37.816;2023-03-14T04:23:54;98825.63;;;-1.56;96.71
62655;BME280;48717;55.556;37.816;2023-03-14T04:26:21;98791.97;;;-1.58;97.07
62655;BME280;48717;55.556;37.816;2023-03-14T04:28:48;98799.22;;;-1.46;97.32
62655;BME280;48717;55.556;37.816;2023-03-14T04:31:20;98780.50;;;-1.39;96.06
62655;BME280;48717;55.556;37.816;2023-03-14T04:33:49;98771.38;;;-1.55;96.39
62655;BME280;48717;55.556;37.816;2023-03-14T04:36:23;98775.94;;;-1.46;96.53
62655;BME280;48717;55.556;37.816;2023-03-14T04:38:51;98759.53;;;-1.47;97.54
62655;BME280;48717;55.556;37.816;2023-03-14T04:41:19;98716.56;;;-1.43;96.61
62655;BME280;48717;55.556;37.816;2023-03-14T04:43:47;98746.34;;;-1.27;96.89
62655;BME280;48717;55.556;37.816;2023-03-14T04:46:14;98736.69;;;-1.33;96.55
62655;BME280;48717;55.556;37.816;2023-03-14T04:48:42;98739.22;;;-1.34;96.38
62655;BME280;48717;55.556;37.816;2023-03-14T04:51:09;98761.53;;;-1.09;95.63
62655;BME280;48717;55.556;37.816;2023-03-14T04:53:37;98751.84;;;-1.16;95.78
62655;BME280;48717;55.556;37.816;2023-03-14T04:56:08;98761.97;;;-0.93;94.97
62655;BME280;48717;55.556;37.816;2023-03-14T04:58:38;98776.53;;;-0.97;95.64
62655;BME280;48717;55.556;37.816;2023-03-14T05:01:06;98715.66;;;-1.14;95.23
62655;BME280;48717;55.556;37.816;2023-03-14T05:03:52;98754.06;;;-0.98;94.96
62655;BME280;48717;55.556;37.816;2023-03-14T05:06:37;98748.88;;;-0.98;94.56
62655;BME280;48717;55.556;37.816;2023-03-14T05:09:25;98751.09;;;-0.80;94.94
62655;BME280;48717;55.556;37.816;2023-03-14T05:12:02;98762.56;;;-0.71;94.03
62655;BME280;48717;55.556;37.816;2023-03-14T05:14:50;98736.72;;;-0.70;94.63
62655;BME280;48717;55.556;37.816;2023-03-14T05:17:43;98737.56;;;-0.69;93.71
62655;BME280;48717;55.556;37.816;2023-03-14T05:20:39;98718.13;;;-0.55;92.00
62655;BME280;48717;55.556;37.816;2023-03-14T05:23:41;98696.69;;;-0.47;92.69
62655;BME280;48717;55.556;37.816;2023-03-14T05:26:30;98730.72;;;-0.33;91.24
62655;BME280;48717;55.556;37.816;2023-03-14T05:29:16;98717.13;;;-0.24;90.74
62655;BME280;48717;55.556;37.816;2023-03-14T05:31:57;98715.53;;;-0.19;90.47
62655;BME280;48717;55.556;37.816;2023-03-14T05:34:44;98697.53;;;-0.13;89.87
62655;BME280;48717;55.556;37.816;2023-03-14T05:37:29;98715.81;;;-0.07;90.22
62655;BME280;48717;55.556;37.816;2023-03-14T05:40:28;98697.84;;;-0.01;89.32
62655;BME280;48717;55.556;37.816;2023-03-14T05:43:03;98678.16;;;0.08;87.59
62655;BME280;48717;55.556;37.816;2023-03-14T05:45:30;98670.13;;;-0.03;87.27
62655;BME280;48717;55.556;37.816;2023-03-14T05:48:09;98693.09;;;0.20;86.83
62655;BME280;48717;55.556;37.816;2023-03-14T05:50:44;98691.50;;;0.25;85.96
62655;BME280;48717;55.556;37.816;2023-03-14T05:53:14;98680.19;;;0.21;85.56
62655;BME280;48717;55.556;37.816;2023-03-14T05:55:55;98722.16;;;0.43;84.31
62655;BME280;48717;55.556;37.816;2023-03-14T05:58:44;98700.84;;;0.58;84.00
62655;BME280;48717;55.556;37.816;2023-03-14T06:01:26;98712.06;;;0.56;82.97
62655;BME280;48717;55.556;37.816;2023-03-14T06:04:09;98722.22;;;0.88;81.84
62655;BME280;48717;55.556;37.816;2023-03-14T06:06:37;98726.81;;;1.01;81.80
62655;BME280;48717;55.556;37.816;2023-03-14T06:09:05;98732.19;;;1.11;81.32
62655;BME280;48717;55.556;37.816;2023-03-14T06:11:35;98690.31;;;0.95;80.60
62655;BME280;48717;55.556;37.816;2023-03-14T06:14:04;98708.91;;;1.15;79.81
62655;BME280;48717;55.556;37.816;2023-03-14T06:16:31;98700.53;;;1.32;79.39
62655;BME280;48717;55.556;37.816;2023-03-14T06:18:59;98705.03;;;1.41;79.37
62655;BME280;48717;55.556;37.816;2023-03-14T06:21:28;98696.28;;;1.36;78.28
62655;BME280;48717;55.556;37.816;2023-03-14T06:23:56;98685.97;;;1.40;78.41
62655;BME280;48717;55.556;37.816;2023-03-14T06:26:25;98661.91;;;1.52;77.54
62655;BME280;48717;55.556;37.816;2023-03-14T06:28:52;98712.28;;;1.61;77.62
62655;BME280;48717;55.556;37.816;2023-03-14T06:31:20;98685.66;;;1.74;77.09
62655;BME280;48717;55.556;37.816;2023-03-14T06:33:53;98704.91;;;1.84;75.96
62655;BME280;48717;55.556;37.816;2023-03-14T06:36:22;98678.81;;;1.79;76.62
62655;BME280;48717;55.556;37.816;2023-03-14T06:38:50;98693.66;;;1.87;76.65
62655;BME280;48717;55.556;37.816;2023-03-14T06:41:18;98685.94;;;1.90;75.37
62655;BME280;48717;55.556;37.816;2023-03-14T06:43:47;98699.00;;;1.96;75.02
62655;BME280;48717;55.556;37.816;2023-03-14T06:46:16;98690.34;;;1.95;74.32
62655;BME280;48717;55.556;37.816;2023-03-14T06:48:43;98692.16;;;2.00;74.51
62655;BME280;48717;55.556;37.816;2023-03-14T06:51:11;98654.91;;;2.01;73.94
62655;BME280;48717;55.556;37.816;2023-03-14T06:53:38;98658.34;;;2.01;73.60
62655;BME280;48717;55.556;37.816;2023-03-14T06:56:06;98658.50;;;2.12;73.27
62655;BME280;48717;55.556;37.816;2023-03-14T06:58:34;98660.22;;;2.10;72.66
62655;BME280;48717;55.556;37.816;2023-03-14T07:01:04;98676.91;;;2.26;72.27
62655;BME280;48717;55.556;37.816;2023-03-14T07:03:38;98675.19;;;2.28;71.74
62655;BME280;48717;55.556;37.816;2023-03-14T07:06:05;98669.97;;;2.25;71.95
62655;BME280;48717;55.556;37.816;2023-03-14T07:08:32;98677.81;;;2.30;71.88
62655;BME280;48717;55.556;37.816;2023-03-14T07:11:00;98688.22;;;2.30;71.16
62655;BME280;48717;55.556;37.816;2023-03-14T07:13:27;98641.31;;;2.22;71.22
62655;BME280;48717;55.556;37.816;2023-03-14T07:16:00;98685.94;;;2.52;70.02
62655;BME280;48717;55.556;37.816;2023-03-14T07:18:27;98674.63;;;2.48;69.64
62655;BME280;48717;55.556;37.816;2023-03-14T07:20:55;98668.75;;;2.65;69.77
62655;BME280;48717;55.556;37.816;2023-03-14T07:23:23;98670.34;;;2.53;68.69
62655;BME280;48717;55.556;37.816;2023-03-14T07:25:52;98681.91;;;2.77;68.36
62655;BME280;48717;55.556;37.816;2023-03-14T07:28:23;98684.50;;;2.77;68.64
62655;BME280;48717;55.556;37.816;2023-03-14T07:30:56;98644.50;;;2.67;67.71
62655;BME280;48717;55.556;37.816;2023-03-14T07:33:28;98703.84;;;2.98;67.32
62655;BME280;48717;55.556;37.816;2023-03-14T07:35:55;98679.50;;;2.93;66.67
62655;BME280;48717;55.556;37.816;2023-03-14T07:38:22;98703.00;;;3.00;67.17
62655;BME280;48717;55.556;37.816;2023-03-14T07:41:17;98639.44;;;2.83;66.41
62655;BME280;48717;55.556;37.816;2023-03-14T07:44:04;98685.75;;;3.10;66.49
62655;BME280;48717;55.556;37.816;2023-03-14T07:46:31;98693.53;;;3.04;66.82
62655;BME280;48717;55.556;37.816;2023-03-14T07:48:58;98671.00;;;3.09;66.28
62655;BME280;48717;55.556;37.816;2023-03-14T07:51:25;98657.13;;;3.10;65.15
62655;BME280;48717;55.556;37.816;2023-03-14T07:53:52;98676.25;;;3.16;65.08
62655;BME280;48717;55.556;37.816;2023-03-14T07:56:19;98691.22;;;3.34;65.43
62655;BME280;48717;55.556;37.816;2023-03-14T07:58:46;98676.56;;;3.47;64.76
62655;BME280;48717;55.556;37.816;2023-03-14T08:01:14;98702.72;;;3.53;64.90
62655;BME280;48717;55.556;37.816;2023-03-14T08:03:41;98685.38;;;3.61;64.16
62655;BME280;48717;55.556;37.816;2023-03-14T08:06:08;98673.22;;;3.60;63.37
62655;BME280;48717;55.556;37.816;2023-03-14T08:08:35;98685.56;;;3.80;63.27
62655;BME280;48717;55.556;37.816;2023-03-14T08:11:06;98676.88;;;3.81;62.61
62655;BME280;48717;55.556;37.816;2023-03-14T08:13:38;98689.94;;;3.87;62.74
62655;BME280;48717;55.556;37.816;2023-03-14T08:16:06;98696.00;;;3.82;63.36
62655;BME280;48717;55.556;37.816;2023-03-14T08:18:34;98703.88;;;3.88;62.30
62655;BME280;48717;55.556;37.816;2023-03-14T08:21:01;98678.47;;;3.65;63.45
62655;BME280;48717;55.556;37.816;2023-03-14T08:23:28;98712.47;;;3.81;61.93
62655;BME280;48717;55.556;37.816;2023-03-14T08:25:55;98697.81;;;3.92;62.34
62655;BME280;48717;55.556;37.816;2023-03-14T08:28:22;98707.34;;;3.88;63.11
62655;BME280;48717;55.556;37.816;2023-03-14T08:30:49;98689.16;;;4.01;63.65
62655;BME280;48717;55.556;37.816;2023-03-14T08:33:16;98683.06;;;3.97;62.65
62655;BME280;48717;55.556;37.816;2023-03-14T08:35:43;98700.50;;;4.03;62.19
62655;BME280;48717;55.556;37.816;2023-03-14T08:38:10;98695.34;;;4.11;62.56
62655;BME280;48717;55.556;37.816;2023-03-14T08:40:37;98693.63;;;4.17;61.44
62655;BME280;48717;55.556;37.816;2023-03-14T08:43:04;98687.47;;;4.03;61.99
62655;BME280;48717;55.556;37.816;2023-03-14T08:45:31;98697.13;;;4.16;60.69
62655;BME280;48717;55.556;37.816;2023-03-14T08:47:58;98666.66;;;4.14;61.32
62655;BME280;48717;55.556;37.816;2023-03-14T08:50:25;98696.28;;;4.21;60.26
62655;BME280;48717;55.556;37.816;2023-03-14T08:52:52;98688.50;;;4.28;59.97
62655;BME280;48717;55.556;37.816;2023-03-14T08:55:20;98687.59;;;4.22;60.03
62655;BME280;48717;55.556;37.816;2023-03-14T08:57:47;98707.69;;;4.38;59.46
62655;BME280;48717;55.556;37.816;2023-03-14T09:00:15;98732.94;;;4.39;59.22
62655;BME280;48717;55.556;37.816;2023-03-14T09:02:42;98698.19;;;4.53;59.33
62655;BME280;48717;55.556;37.816;2023-03-14T09:05:11;98696.53;;;4.67;59.05
62655;BME280;48717;55.556;37.816;2023-03-14T09:07:39;98703.41;;;4.53;57.53
62655;BME280;48717;55.556;37.816;2023-03-14T09:10:08;98693.84;;;4.56;58.02
62655;BME280;48717;55.556;37.816;2023-03-14T09:12:35;98689.47;;;4.48;56.97
62655;BME280;48717;55.556;37.816;2023-03-14T09:15:03;98693.03;;;4.65;57.30
62655;BME280;48717;55.556;37.816;2023-03-14T09:17:30;98696.59;;;4.83;56.59
62655;BME280;48717;55.556;37.816;2023-03-14T09:19:57;98678.28;;;4.78;56.08
62655;BME280;48717;55.556;37.816;2023-03-14T09:22:26;98694.91;;;4.90;56.05
62655;BME280;48717;55.556;37.816;2023-03-14T09:24:53;98663.47;;;4.68;55.94
62655;BME280;48717;55.556;37.816;2023-03-14T09:27:20;98701.00;;;4.95;56.62
62655;BME280;48717;55.556;37.816;2023-03-14T09:29:47;98690.56;;;4.95;55.63
62655;BME280;48717;55.556;37.816;2023-03-14T09:32:14;98673.09;;;4.88;55.92
62655;BME280;48717;55.556;37.816;2023-03-14T09:34:41;98692.28;;;4.88;56.12
62655;BME280;48717;55.556;37.816;2023-03-14T09:37:08;98721.06;;;5.01;55.63
62655;BME280;48717;55.556;37.816;2023-03-14T09:39:35;98686.19;;;4.92;55.25
62655;BME280;48717;55.556;37.816;2023-03-14T09:42:06;98705.41;;;5.10;55.54
62655;BME280;48717;55.556;37.816;2023-03-14T09:44:39;98711.56;;;5.20;54.48
62655;BME280;48717;55.556;37.816;2023-03-14T09:47:12;98718.53;;;5.22;54.62
62655;BME280;48717;55.556;37.816;2023-03-14T09:49:42;98681.03;;;5.11;54.23
62655;BME280;48717;55.556;37.816;2023-03-14T09:52:36;98705.47;;;5.32;54.15
62655;BME280;48717;55.556;37.816;2023-03-14T09:55:14;98701.09;;;5.25;54.54
62655;BME280;48717;55.556;37.816;2023-03-14T09:57:43;98681.94;;;5.22;54.49
62655;BME280;48717;55.556;37.816;2023-03-14T10:00:20;98695.91;;;5.40;54.29
62655;BME280;48717;55.556;37.816;2023-03-14T10:03:16;98699.41;;;5.39;54.01
62655;BME280;48717;55.556;37.816;2023-03-14T10:05:48;98677.59;;;5.43;53.87
62655;BME280;48717;55.556;37.816;2023-03-14T10:08:15;98688.06;;;5.37;54.38
62655;BME280;48717;55.556;37.816;2023-03-14T10:10:42;98689.81;;;5.44;53.20
62655;BME280;48717;55.556;37.816;2023-03-14T10:15:37;98677.63;;;5.59;53.15
62655;BME280;48717;55.556;37.816;2023-03-14T10:18:11;98672.41;;;5.62;53.50
62655;BME280;48717;55.556;37.816;2023-03-14T10:20:44;98695.06;;;5.61;52.71
62655;BME280;48717;55.556;37.816;2023-03-14T10:26:08;98664.56;;;5.68;52.80
62655;BME280;48717;55.556;37.816;2023-03-14T10:28:43;98648.00;;;5.72;52.71
62655;BME280;48717;55.556;37.816;2023-03-14T10:31:11;98654.09;;;5.81;52.79
62655;BME280;48717;55.556;37.816;2023-03-14T10:33:39;98649.75;;;5.70;52.30
62655;BME280;48717;55.556;37.816;2023-03-14T10:36:23;98658.44;;;5.82;53.34
62655;BME280;48717;55.556;37.816;2023-03-14T10:41:52;98657.56;;;5.98;52.95
62655;BME280;48717;55.556;37.816;2023-03-14T10:44:22;98641.88;;;6.08;53.83
62655;BME280;48717;55.556;37.816;2023-03-14T10:46:59;98653.19;;;6.00;53.23
62655;BME280;48717;55.556;37.816;2023-03-14T10:49:36;98648.84;;;5.68;52.98
62655;BME280;48717;55.556;37.816;2023-03-14T10:52:26;98644.47;;;5.83;53.90
62655;BME280;48717;55.556;37.816;2023-03-14T10:55:13;98664.53;;;5.88;55.09
62655;BME280;48717;55.556;37.816;2023-03-14T10:57:42;98623.56;;;5.86;55.12
62655;BME280;48717;55.556;37.816;2023-03-14T11:00:15;98627.91;;;5.99;53.83
62655;BME280;48717;55.556;37.816;2023-03-14T11:08:02;98627.00;;;6.25;51.83
62655;BME280;48717;55.556;37.816;2023-03-14T11:10:39;98636.56;;;6.37;52.70
62655;BME280;48717;55.556;37.816;2023-03-14T11:21:59;98644.34;;;6.58;51.45
62655;BME280;48717;55.556;37.816;2023-03-14T11:27:24;98639.16;;;6.48;50.52
62655;BME280;48717;55.556;37.816;2023-03-14T11:29:57;98631.25;;;6.56;50.19
62655;BME280;48717;55.556;37.816;2023-03-14T11:35:24;98638.13;;;6.82;49.49
62655;BME280;48717;55.556;37.816;2023-03-14T11:38:12;98684.47;;;6.75;50.35
62655;BME280;48717;55.556;37.816;2023-03-14T11:40:41;98634.81;;;6.43;50.04
62655;BME280;48717;55.556;37.816;2023-03-14T11:43:20;98660.00;;;6.76;50.68
62655;BME280;48717;55.556;37.816;2023-03-14T11:45:56;98644.34;;;6.58;50.87
62655;BME280;48717;55.556;37.816;2023-03-14T11:48:35;98688.84;;;6.70;49.68
62655;BME280;48717;55.556;37.816;2023-03-14T11:51:14;98633.88;;;6.58;50.37
62655;BME280;48717;55.556;37.816;2023-03-14T11:53:49;98633.88;;;6.62;49.89
62655;BME280;48717;55.556;37.816;2023-03-14T11:56:27;98660.88;;;6.78;50.16
62655;BME280;48717;55.556;37.816;2023-03-14T11:59:30;98666.16;;;6.72;49.77
62655;BME280;48717;55.556;37.816;2023-03-14T12:02:13;98660.91;;;6.71;49.87
62655;BME280;48717;55.556;37.816;2023-03-14T12:13:32;98679.22;;;6.75;49.81
62655;BME280;48717;55.556;37.816;2023-03-14T12:18:52;98684.47;;;6.82;49.39
62655;BME280;48717;55.556;37.816;2023-03-14T12:21:48;98679.22;;;6.75;49.43
62655;BME280;48717;55.556;37.816;2023-03-14T12:24:28;98674.06;;;6.53;49.09
62655;BME280;48717;55.556;37.816;2023-03-14T12:27:01;98703.72;;;6.62;49.93
62655;BME280;48717;55.556;37.816;2023-03-14T12:29:28;98710.69;;;6.63;49.05
62655;BME280;48717;55.556;37.816;2023-03-14T12:32:22;98715.06;;;6.58;49.42
62655;BME280;48717;55.556;37.816;2023-03-14T12:34:50;98695.88;;;6.56;48.89
62655;BME280;48717;55.556;37.816;2023-03-14T12:37:19;98713.34;;;6.61;49.16
62655;BME280;48717;55.556;37.816;2023-03-14T12:39:58;98726.41;;;6.66;49.55
62655;BME280;48717;55.556;37.816;2023-03-14T12:48:23;98705.53;;;6.35;49.12
62655;BME280;48717;55.556;37.816;2023-03-14T12:50:56;98711.63;;;6.29;50.40
62655;BME280;48717;55.556;37.816;2023-03-14T12:56:28;98697.69;;;6.13;49.82
62655;BME280;48717;55.556;37.816;2023-03-14T13:01:25;98711.66;;;6.12;51.22
62655;BME280;48717;55.556;37.816;2023-03-14T13:03:56;98733.47;;;6.05;49.91
62655;BME280;48717;55.556;37.816;2023-03-14T13:06:57;98698.56;;;6.09;50.35
62655;BME280;48717;55.556;37.816;2023-03-14T13:12:10;98707.25;;;5.83;50.83
62655;BME280;48717;55.556;37.816;2023-03-14T13:14:51;98688.09;;;5.82;51.24
62655;BME280;48717;55.556;37.816;2023-03-14T13:17:33;98691.59;;;5.77;51.73
62655;BME280;48717;55.556;37.816;2023-03-14T13:20:58;98697.66;;;5.79;52.41
62655;BME280;48717;55.556;37.816;2023-03-14T13:23:31;98702.91;;;5.69;51.19
62655;BME280;48717;55.556;37.816;2023-03-14T13:26:15;98670.63;;;5.45;51.31
62655;BME280;48717;55.556;37.816;2023-03-14T13:31:54;98719.47;;;5.53;52.06
62655;BME280;48717;55.556;37.816;2023-03-14T13:35:13;98715.94;;;5.41;52.23
62655;BME280;48717;55.556;37.816;2023-03-14T13:38:19;98693.31;;;5.57;51.90
62655;BME280;48717;55.556;37.816;2023-03-14T13:40:55;98691.56;;;5.55;51.54
62655;BME280;48717;55.556;37.816;2023-03-14T13:48:58;98672.38;;;5.56;52.26
62655;BME280;48717;55.556;37.816;2023-03-14T13:51:30;98668.88;;;5.41;52.39
62655;BME280;48717;55.556;37.816;2023-03-14T13:54:46;98677.63;;;5.59;52.84
62655;BME280;48717;55.556;37.816;2023-03-14T14:00:58;98679.34;;;5.60;52.11
62655;BME280;48717;55.556;37.816;2023-03-14T14:03:38;98658.41;;;5.13;51.93
62655;BME280;48717;55.556;37.816;2023-03-14T14:06:23;98657.56;;;5.36;51.58
62655;BME280;48717;55.556;37.816;2023-03-14T14:08:56;98703.78;;;5.53;51.53
62655;BME280;48717;55.556;37.816;2023-03-14T14:11:37;98674.13;;;5.47;51.64
62655;BME280;48717;55.556;37.816;2023-03-14T14:17:04;98675.88;;;5.52;52.11
62655;BME280;48717;55.556;37.816;2023-03-14T14:19:33;98695.03;;;5.58;52.38
62655;BME280;48717;55.556;37.816;2023-03-14T14:22:01;98637.50;;;5.29;52.02
62655;BME280;48717;55.556;37.816;2023-03-14T14:24:30;98678.47;;;5.53;52.49
62655;BME280;48717;55.556;37.816;2023-03-14T14:27:03;98696.78;;;5.52;53.48
62655;BME280;48717;55.556;37.816;2023-03-14T14:29:35;98698.53;;;5.49;54.05
62655;BME280;48717;55.556;37.816;2023-03-14T14:37:33;98712.31;;;4.94;54.39
62655;BME280;48717;55.556;37.816;2023-03-14T14:40:08;98698.41;;;5.03;55.24
62655;BME280;48717;55.556;37.816;2023-03-14T14:42:40;98707.13;;;4.95;55.59
62655;BME280;48717;55.556;37.816;2023-03-14T14:45:17;98742.78;;;4.90;55.37
62655;BME280;48717;55.556;37.816;2023-03-14T14:48:02;98726.25;;;4.94;55.98